Terminal Aerodrome Forecast
Issued by NWS Wilmington, OH

Current Version | Previous Version | Graphics & Text | Print | Product List | Glossary On
Versions: 1 2 3 4 5 6 7 8 9 10 11 12 13 14 15 16 17 18 19 20 21 22
000
FTUS41 KILN 182300
TAFILN
TAF
KILN 182330Z 1900/1924 VRB03KT P6SM SKC
      TEMPO 1909/1912 00000KT 5SM BR
     FM191400 07008KT P6SM FEW050=

USA.gov is the U.S. government's official web portal to all federal, state and local government web resources and services.